Time;durP1;ratioP1;P1;durP2;ratioP2;P2;SDS_P1;SDS_P2;PMS_P1;PMS_P2;Temp;Humidity;BMP_temperature;BMP_pressure;BME280_temperature;BME280_humidity;BME280_pressure;Samples;Min_cycle;Max_cycle;Signal;HPM_P1;HPM_P2
2023/03/06 00:01:55;;;;;;;5.23;2.80;;;3.70;99.90;;;;;;5014665;28;20215;-82
2023/03/06 00:04:22;;;;;;;4.53;3.20;;;3.70;99.90;;;;;;5014734;28;20581;-84
2023/03/06 00:06:49;;;;;;;6.27;3.37;;;3.80;99.90;;;;;;5015094;28;20196;-82
2023/03/06 00:09:15;;;;;;;5.83;3.17;;;3.70;99.90;;;;;;5012948;28;20228;-82
2023/03/06 00:11:43;;;;;;;7.40;3.03;;;3.70;99.90;;;;;;5019571;28;20200;-84
2023/03/06 00:14:10;;;;;;;4.00;3.10;;;3.70;99.90;;;;;;5018178;28;20209;-83
2023/03/06 00:16:37;;;;;;;7.80;3.20;;;3.80;99.90;;;;;;5016556;28;20204;-83
2023/03/06 00:19:04;;;;;;;7.27;3.20;;;3.80;99.90;;;;;;5017089;28;20605;-82
2023/03/06 00:21:30;;;;;;;4.17;2.90;;;3.80;99.90;;;;;;5019026;28;20226;-85
2023/03/06 00:23:57;;;;;;;7.53;3.33;;;3.80;99.90;;;;;;5018154;28;20208;-83
2023/03/06 00:26:24;;;;;;;6.03;3.17;;;3.70;99.90;;;;;;5018424;28;20211;-82
2023/03/06 00:28:52;;;;;;;4.07;2.90;;;3.70;99.90;;;;;;5024348;28;20224;-84
2023/03/06 00:31:19;;;;;;;6.07;3.07;;;3.70;99.90;;;;;;5017581;28;20204;-85
2023/03/06 00:33:46;;;;;;;6.13;3.47;;;3.70;99.90;;;;;;5016435;28;20661;-82
2023/03/06 00:36:13;;;;;;;6.93;3.07;;;3.70;99.90;;;;;;5017774;28;20214;-81
2023/03/06 00:38:39;;;;;;;5.60;3.60;;;3.70;99.90;;;;;;5013370;28;20214;-85
2023/03/06 00:41:07;;;;;;;5.03;3.40;;;3.70;99.90;;;;;;5003677;28;20204;-83
2023/03/06 00:43:34;;;;;;;6.73;3.20;;;3.70;99.90;;;;;;5013241;28;20288;-83
2023/03/06 00:46:04;;;;;;;6.87;3.17;;;3.60;99.90;;;;;;5016763;28;20207;-83
2023/03/06 00:48:31;;;;;;;7.07;3.13;;;3.60;99.90;;;;;;5015984;28;20235;-83
2023/03/06 00:50:58;;;;;;;4.87;3.10;;;3.60;99.90;;;;;;5017339;28;20210;-82
2023/03/06 00:53:25;;;;;;;5.17;3.37;;;3.60;99.90;;;;;;5017018;28;20295;-83
2023/03/06 00:55:52;;;;;;;6.90;3.73;;;3.60;99.90;;;;;;5021325;28;20211;-82
2023/03/06 00:58:19;;;;;;;6.30;3.47;;;3.50;99.90;;;;;;5001587;28;20225;-84
2023/03/06 01:00:46;;;;;;;8.37;4.33;;;3.50;99.90;;;;;;5006680;28;20665;-82
2023/03/06 01:03:14;;;;;;;6.77;4.03;;;3.50;99.90;;;;;;5012010;28;20203;-82
2023/03/06 01:05:41;;;;;;;11.23;4.30;;;3.50;99.90;;;;;;5012821;28;20201;-82
2023/03/06 01:08:08;;;;;;;9.37;4.77;;;3.50;99.90;;;;;;5008082;28;20239;-82
2023/03/06 01:10:39;;;;;;;6.07;4.13;;;3.40;99.90;;;;;;5016518;28;20204;-82
2023/03/06 01:13:06;;;;;;;9.57;4.17;;;3.40;99.90;;;;;;5016211;28;20673;-83
2023/03/06 01:15:33;;;;;;;8.10;4.87;;;3.40;99.90;;;;;;5017032;28;20207;-82
2023/03/06 01:18:00;;;;;;;9.77;5.20;;;3.40;99.90;;;;;;5016001;28;20247;-84
2023/03/06 01:20:29;;;;;;;9.43;4.77;;;3.40;99.90;;;;;;5016024;28;20547;-82
2023/03/06 01:22:55;;;;;;;10.33;4.50;;;3.40;99.90;;;;;;5015273;28;20207;-82
2023/03/06 01:25:23;;;;;;;8.10;4.97;;;3.50;99.90;;;;;;5015887;28;20207;-83
2023/03/06 01:27:49;;;;;;;22.80;4.77;;;3.50;99.90;;;;;;5016457;28;20216;-82
2023/03/06 01:30:17;;;;;;;8.77;4.97;;;3.50;99.90;;;;;;5014570;28;20220;-82
2023/03/06 01:32:44;;;;;;;8.80;5.07;;;3.50;99.90;;;;;;5016398;28;20687;-82
2023/03/06 01:35:11;;;;;;;9.67;4.97;;;3.60;99.90;;;;;;5016762;28;20204;-85
2023/03/06 01:37:40;;;;;;;11.27;5.37;;;3.50;99.90;;;;;;5016258;28;20759;-82
2023/03/06 01:40:10;;;;;;;11.23;5.23;;;3.50;99.90;;;;;;5014332;28;20200;-82
2023/03/06 01:42:36;;;;;;;9.00;4.70;;;3.60;99.90;;;;;;5017217;28;20590;-82
2023/03/06 01:45:07;;;;;;;13.27;5.43;;;3.60;99.90;;;;;;5017353;28;20196;-83
2023/03/06 01:47:36;;;;;;;10.43;5.73;;;3.60;99.90;;;;;;5014314;28;20231;-82
2023/03/06 01:50:04;;;;;;;11.27;6.40;;;3.50;99.90;;;;;;5016700;28;20256;-82
2023/03/06 01:52:35;;;;;;;9.97;5.40;;;3.50;99.90;;;;;;5015747;28;20210;-84
2023/03/06 01:55:07;;;;;;;11.70;6.47;;;3.50;99.90;;;;;;5002571;28;20200;-82
2023/03/06 01:57:38;;;;;;;11.53;5.67;;;3.50;99.90;;;;;;5010795;28;20239;-81
2023/03/06 02:00:08;;;;;;;12.33;6.37;;;3.40;99.90;;;;;;5003332;28;20203;-82
2023/03/06 02:02:36;;;;;;;12.00;5.80;;;3.40;99.90;;;;;;5007061;28;20542;-82
2023/03/06 02:05:05;;;;;;;11.80;5.93;;;3.40;99.90;;;;;;5017003;28;20301;-82
2023/03/06 02:07:32;;;;;;;14.30;6.47;;;3.30;99.90;;;;;;5014855;28;20222;-83
2023/03/06 02:09:59;;;;;;;15.00;7.27;;;3.30;99.90;;;;;;5014197;28;20228;-82
2023/03/06 02:12:28;;;;;;;15.07;7.33;;;3.30;99.90;;;;;;5016413;28;20204;-82
2023/03/06 02:14:55;;;;;;;13.23;7.17;;;3.30;99.90;;;;;;5014471;28;20214;-85
2023/03/06 02:17:23;;;;;;;13.13;6.37;;;3.30;99.90;;;;;;5013556;28;20228;-82
2023/03/06 02:19:56;;;;;;;14.80;7.20;;;3.30;99.90;;;;;;5014918;28;20197;-83
2023/03/06 02:22:25;;;;;;;14.07;6.73;;;3.20;99.90;;;;;;5014017;28;20673;-82
2023/03/06 02:24:58;;;;;;;17.77;6.97;;;3.20;99.90;;;;;;5014814;28;20200;-82
2023/03/06 02:27:27;;;;;;;14.07;6.77;;;3.20;99.90;;;;;;5002022;28;20226;-82
2023/03/06 02:29:54;;;;;;;12.90;6.73;;;3.20;99.90;;;;;;5014676;28;20739;-82
2023/03/06 02:32:20;;;;;;;16.30;6.57;;;3.20;99.90;;;;;;5014729;28;20219;-82
2023/03/06 02:34:54;;;;;;;14.63;7.00;;;3.20;99.90;;;;;;5011518;28;20288;-82
2023/03/06 02:37:21;;;;;;;14.23;7.07;;;3.20;99.90;;;;;;5005414;28;20220;-84
2023/03/06 02:39:52;;;;;;;13.37;7.10;;;3.10;99.90;;;;;;5012822;28;20204;-82
2023/03/06 02:42:21;;;;;;;15.57;7.23;;;3.10;99.90;;;;;;5013604;28;20204;-82
2023/03/06 02:44:50;;;;;;;15.60;7.60;;;3.10;99.90;;;;;;5010027;28;20280;-84
2023/03/06 02:47:17;;;;;;;15.37;7.30;;;3.10;99.90;;;;;;5012297;28;21910;-82
2023/03/06 02:49:44;;;;;;;15.40;8.23;;;3.10;99.90;;;;;;5013998;28;20216;-82
2023/03/06 02:52:11;;;;;;;15.80;6.83;;;3.00;99.90;;;;;;5014703;28;20212;-83
2023/03/06 02:54:37;;;;;;;17.00;7.63;;;3.00;99.90;;;;;;5014068;28;20612;-82
2023/03/06 02:57:04;;;;;;;16.10;7.90;;;3.00;99.90;;;;;;5011743;28;20586;-82
2023/03/06 02:59:31;;;;;;;12.27;6.47;;;3.00;99.90;;;;;;5013155;28;20211;-82
2023/03/06 03:02:00;;;;;;;14.33;6.90;;;2.90;99.90;;;;;;5013260;28;20236;-83
2023/03/06 03:04:26;;;;;;;15.43;7.70;;;2.90;99.90;;;;;;5012994;28;20203;-82
2023/03/06 03:06:53;;;;;;;16.40;7.33;;;2.90;99.90;;;;;;5012751;28;20192;-83
2023/03/06 03:09:20;;;;;;;14.07;7.20;;;2.80;99.90;;;;;;5012003;28;20243;-82
2023/03/06 03:11:47;;;;;;;12.20;6.80;;;2.80;99.90;;;;;;5012162;28;20715;-82
2023/03/06 03:14:15;;;;;;;13.93;7.30;;;2.80;99.90;;;;;;5011183;28;20211;-84
2023/03/06 03:16:42;;;;;;;16.33;7.60;;;2.80;99.90;;;;;;5011131;28;20687;-84
2023/03/06 03:19:10;;;;;;;18.70;9.53;;;2.70;99.90;;;;;;5017735;28;20220;-83
2023/03/06 03:21:37;;;;;;;17.87;8.07;;;2.70;99.90;;;;;;5025202;28;20192;-82
2023/03/06 03:24:04;;;;;;;14.53;7.10;;;2.70;99.90;;;;;;5011683;28;20270;-84
2023/03/06 03:26:31;;;;;;;16.57;7.67;;;2.60;99.90;;;;;;5014009;28;20214;-82
2023/03/06 03:28:58;;;;;;;15.43;7.87;;;2.60;99.90;;;;;;5012961;28;20668;-82
2023/03/06 03:31:25;;;;;;;16.13;8.20;;;2.60;99.90;;;;;;5011487;28;20572;-82
2023/03/06 03:33:52;;;;;;;28.03;13.77;;;2.50;99.90;;;;;;5012291;28;20208;-82
2023/03/06 03:36:20;;;;;;;18.10;8.47;;;2.60;99.90;;;;;;5013233;28;20673;-82
2023/03/06 03:38:47;;;;;;;16.77;8.20;;;2.50;99.90;;;;;;5011247;28;20303;-82
2023/03/06 03:41:13;;;;;;;14.47;7.50;;;2.50;99.90;;;;;;5013275;28;20676;-83
2023/03/06 03:43:40;;;;;;;15.47;8.30;;;2.60;99.90;;;;;;5013380;28;20219;-83
2023/03/06 03:46:07;;;;;;;17.00;8.47;;;2.60;99.90;;;;;;5011797;28;20202;-82
2023/03/06 03:48:34;;;;;;;12.83;7.10;;;2.60;99.90;;;;;;5012094;28;20220;-84
2023/03/06 03:51:05;;;;;;;14.47;7.27;;;2.50;99.90;;;;;;5014050;28;20235;-82
2023/03/06 03:53:33;;;;;;;12.53;7.27;;;2.50;99.90;;;;;;5015611;28;20231;-84
2023/03/06 03:56:00;;;;;;;14.77;7.07;;;2.50;99.90;;;;;;5014534;28;20216;-84
2023/03/06 03:58:27;;;;;;;13.30;6.50;;;2.50;99.90;;;;;;5005788;28;20305;-83
2023/03/06 04:00:54;;;;;;;14.63;7.10;;;2.60;99.90;;;;;;5005606;28;20201;-83
2023/03/06 04:03:20;;;;;;;11.63;6.80;;;2.60;99.90;;;;;;5013388;28;20208;-84
2023/03/06 04:05:47;;;;;;;12.23;6.73;;;2.60;99.90;;;;;;5021927;28;20568;-83
2023/03/06 04:08:14;;;;;;;12.60;6.10;;;2.60;99.90;;;;;;5012666;28;20228;-83
2023/03/06 04:10:42;;;;;;;15.27;6.50;;;2.60;99.90;;;;;;5013363;28;20220;-83
2023/03/06 04:13:09;;;;;;;13.80;6.73;;;2.60;99.90;;;;;;5000073;28;20691;-82
2023/03/06 04:15:36;;;;;;;15.70;7.40;;;2.60;99.90;;;;;;5017058;28;20271;-83
2023/03/06 04:18:03;;;;;;;15.30;7.77;;;2.60;99.90;;;;;;5015137;28;20259;-85
2023/03/06 04:20:30;;;;;;;14.53;6.67;;;2.60;99.90;;;;;;5018165;28;20212;-83
2023/03/06 04:22:56;;;;;;;19.17;10.33;;;2.60;99.90;;;;;;5015996;28;20287;-82
2023/03/06 04:25:23;;;;;;;19.43;9.93;;;2.60;99.90;;;;;;5017207;28;20200;-84
2023/03/06 04:27:51;;;;;;;15.20;8.20;;;2.60;99.90;;;;;;5018078;28;20565;-82
2023/03/06 04:30:18;;;;;;;16.43;8.30;;;2.60;99.90;;;;;;5015396;28;20715;-81
2023/03/06 04:32:45;;;;;;;18.10;8.67;;;2.60;99.90;;;;;;5011255;28;20200;-81
2023/03/06 04:35:12;;;;;;;16.40;8.37;;;2.70;99.90;;;;;;5012454;28;20224;-83
2023/03/06 04:37:39;;;;;;;21.67;9.87;;;2.70;99.90;;;;;;5011217;28;20234;-82
2023/03/06 04:40:08;;;;;;;18.10;9.07;;;2.70;99.90;;;;;;5011915;28;20205;-81
2023/03/06 04:42:34;;;;;;;19.53;9.53;;;2.70;99.90;;;;;;5007246;28;20208;-83
2023/03/06 04:45:03;;;;;;;20.83;11.40;;;2.70;99.90;;;;;;5020348;28;20207;-82
2023/03/06 04:47:30;;;;;;;23.63;11.43;;;2.70;99.90;;;;;;5011308;28;20232;-81
2023/03/06 04:49:56;;;;;;;22.27;11.03;;;2.70;99.90;;;;;;5011311;28;20224;-83
2023/03/06 04:52:23;;;;;;;20.63;10.20;;;2.70;99.90;;;;;;5010878;28;20219;-83
2023/03/06 04:54:50;;;;;;;18.03;9.50;;;2.70;99.90;;;;;;5011963;28;20205;-81
2023/03/06 04:57:17;;;;;;;19.30;10.43;;;2.60;99.90;;;;;;5007171;28;20573;-82
2023/03/06 04:59:43;;;;;;;20.63;11.03;;;2.60;99.90;;;;;;5004236;28;20580;-82
2023/03/06 05:02:12;;;;;;;24.07;12.50;;;2.60;99.90;;;;;;5009404;28;20287;-83
2023/03/06 05:04:38;;;;;;;21.57;11.70;;;2.60;99.90;;;;;;5007405;28;20200;-81
2023/03/06 05:07:05;;;;;;;23.60;12.27;;;2.50;99.90;;;;;;5007707;28;20200;-81
2023/03/06 05:09:34;;;;;;;20.93;11.37;;;2.50;99.90;;;;;;4997730;28;20201;-82
2023/03/06 05:12:01;;;;;;;24.67;13.70;;;2.40;99.90;;;;;;5014894;28;20209;-81
2023/03/06 05:14:29;;;;;;;24.50;14.13;;;2.50;99.90;;;;;;5013802;28;20287;-82
2023/03/06 05:16:56;;;;;;;23.47;12.23;;;2.50;99.90;;;;;;5012513;28;20534;-83
2023/03/06 05:19:24;;;;;;;23.63;11.43;;;2.50;99.90;;;;;;5013642;28;20232;-83
2023/03/06 05:21:51;;;;;;;23.70;12.50;;;2.50;99.90;;;;;;5014033;28;20570;-83
2023/03/06 05:24:18;;;;;;;24.07;12.67;;;2.50;99.90;;;;;;5014590;28;20201;-82
2023/03/06 05:26:44;;;;;;;25.23;13.10;;;2.50;99.90;;;;;;5013473;28;20197;-84
2023/03/06 05:29:11;;;;;;;25.33;13.97;;;2.50;99.90;;;;;;5014534;28;20240;-82
2023/03/06 05:31:38;;;;;;;27.10;15.07;;;2.50;99.90;;;;;;5013026;28;20239;-83
2023/03/06 05:34:05;;;;;;;26.30;14.40;;;2.60;99.90;;;;;;5026065;28;20209;-82
2023/03/06 05:36:33;;;;;;;28.20;14.37;;;2.60;99.90;;;;;;5019237;28;20208;-82
2023/03/06 05:38:59;;;;;;;25.13;14.50;;;2.60;99.90;;;;;;5013891;28;20224;-82
2023/03/06 05:41:26;;;;;;;29.70;13.97;;;2.60;99.90;;;;;;5014657;28;20686;-82
2023/03/06 05:43:53;;;;;;;26.57;13.67;;;2.60;99.90;;;;;;5015140;28;20298;-82
2023/03/06 05:46:20;;;;;;;31.13;15.50;;;2.70;99.90;;;;;;5014786;28;20228;-83
2023/03/06 05:48:47;;;;;;;25.17;13.53;;;2.60;99.90;;;;;;5014791;28;20313;-82
2023/03/06 05:51:14;;;;;;;28.43;14.30;;;2.60;99.90;;;;;;5014867;28;20255;-81
2023/03/06 05:53:42;;;;;;;26.87;14.77;;;2.60;99.90;;;;;;5015459;28;20653;-82
2023/03/06 05:56:09;;;;;;;27.40;15.47;;;2.60;99.90;;;;;;5015029;28;20213;-83
2023/03/06 05:58:36;;;;;;;30.37;15.47;;;2.60;99.90;;;;;;5014524;28;20247;-82
2023/03/06 06:01:09;;;;;;;26.17;14.77;;;2.60;99.90;;;;;;5014853;28;20258;-82
2023/03/06 06:03:36;;;;;;;32.03;15.40;;;2.60;99.90;;;;;;5014514;28;20263;-81
2023/03/06 06:06:04;;;;;;;29.40;16.00;;;2.60;99.90;;;;;;5014825;28;20201;-82
2023/03/06 06:08:31;;;;;;;28.67;15.93;;;2.60;99.90;;;;;;5014184;28;20256;-81
2023/03/06 06:10:59;;;;;;;24.90;13.37;;;2.60;99.90;;;;;;5014462;28;20227;-81
2023/03/06 06:13:26;;;;;;;28.17;14.87;;;2.60;99.90;;;;;;5014462;28;20212;-82
2023/03/06 06:15:53;;;;;;;26.07;14.57;;;2.60;99.90;;;;;;5014566;28;20216;-82
2023/03/06 06:18:20;;;;;;;26.77;14.60;;;2.60;99.90;;;;;;5014692;28;20315;-82
2023/03/06 06:20:47;;;;;;;28.47;15.00;;;2.60;99.90;;;;;;5014625;28;20548;-82
2023/03/06 06:23:13;;;;;;;27.27;15.27;;;2.60;99.90;;;;;;5014885;28;20212;-82
2023/03/06 06:25:40;;;;;;;27.30;14.53;;;2.60;99.90;;;;;;5014589;28;20208;-83
2023/03/06 06:28:08;;;;;;;23.97;13.53;;;2.60;99.90;;;;;;5013954;28;20227;-82
2023/03/06 06:30:35;;;;;;;28.97;14.03;;;2.60;99.90;;;;;;5014116;28;20219;-81
2023/03/06 06:33:02;;;;;;;26.47;14.73;;;2.60;99.90;;;;;;5013942;28;20206;-83
2023/03/06 06:35:29;;;;;;;26.90;13.70;;;2.60;99.90;;;;;;5014331;28;20211;-83
2023/03/06 06:37:55;;;;;;;28.67;14.87;;;2.60;99.90;;;;;;5013776;28;20224;-82
2023/03/06 06:40:23;;;;;;;28.03;14.83;;;2.60;99.90;;;;;;5013720;28;20238;-83
2023/03/06 06:42:50;;;;;;;26.73;13.67;;;2.60;99.90;;;;;;5013963;28;20213;-82
2023/03/06 06:45:18;;;;;;;28.00;14.87;;;2.60;99.90;;;;;;5013799;28;20208;-82
2023/03/06 06:47:45;;;;;;;26.17;14.20;;;2.70;99.90;;;;;;5013907;28;20232;-82
2023/03/06 06:50:13;;;;;;;28.90;14.97;;;2.70;99.90;;;;;;5013528;28;20228;-82
2023/03/06 06:52:40;;;;;;;27.50;14.60;;;2.70;99.90;;;;;;5015372;28;20231;-82
2023/03/06 06:55:08;;;;;;;29.33;15.20;;;2.80;99.90;;;;;;5015116;28;20272;-82
2023/03/06 06:57:34;;;;;;;28.10;15.43;;;2.80;99.90;;;;;;5013961;28;20234;-82
2023/03/06 07:00:01;;;;;;;28.30;14.83;;;2.90;99.90;;;;;;5013761;28;20208;-81
2023/03/06 07:02:31;;;;;;;26.00;14.20;;;2.90;99.90;;;;;;5013533;28;20204;-83
2023/03/06 07:04:57;;;;;;;32.83;17.40;;;3.00;99.90;;;;;;5013923;28;20204;-82
2023/03/06 07:07:24;;;;;;;28.67;14.83;;;3.00;99.90;;;;;;5013531;28;20224;-83
2023/03/06 07:09:51;;;;;;;31.43;16.13;;;3.10;99.90;;;;;;5013113;28;20200;-83
2023/03/06 07:12:18;;;;;;;32.27;16.83;;;3.10;99.90;;;;;;5011482;28;20219;-81
2023/03/06 07:14:45;;;;;;;31.03;15.87;;;3.20;99.90;;;;;;5029007;28;20204;-83
2023/03/06 07:17:12;;;;;;;30.30;17.73;;;3.20;99.90;;;;;;5031850;28;20265;-83
2023/03/06 07:19:40;;;;;;;29.07;15.40;;;3.30;99.90;;;;;;5002897;28;20209;-83
2023/03/06 07:22:07;;;;;;;26.30;15.20;;;3.30;99.90;;;;;;5016421;28;20200;-82
2023/03/06 07:24:33;;;;;;;25.13;14.27;;;3.30;99.90;;;;;;5023110;28;20204;-81
2023/03/06 07:27:00;;;;;;;24.27;13.13;;;3.30;99.90;;;;;;5012875;28;20215;-81
2023/03/06 07:29:27;;;;;;;24.13;12.77;;;3.40;99.90;;;;;;5012586;28;20227;-84
2023/03/06 07:31:54;;;;;;;23.07;13.20;;;3.40;99.90;;;;;;5004639;28;20695;-82
2023/03/06 07:34:21;;;;;;;25.07;13.07;;;3.40;99.90;;;;;;5011896;28;20711;-82
2023/03/06 07:36:50;;;;;;;23.83;12.47;;;3.50;99.90;;;;;;5020986;28;20203;-83
2023/03/06 07:39:16;;;;;;;23.67;12.90;;;3.50;99.90;;;;;;5010930;28;20263;-82
2023/03/06 07:41:43;;;;;;;24.80;12.77;;;3.50;99.90;;;;;;5013047;28;20207;-82
2023/03/06 07:44:10;;;;;;;25.90;11.70;;;3.50;99.90;;;;;;5013159;28;20539;-82
2023/03/06 07:46:37;;;;;;;22.67;11.90;;;3.60;99.90;;;;;;5012960;28;20543;-82
2023/03/06 07:49:03;;;;;;;22.07;11.57;;;3.60;99.90;;;;;;5011577;28;20591;-83
2023/03/06 07:51:30;;;;;;;23.57;11.20;;;3.70;99.90;;;;;;5012219;28;20224;-83
2023/03/06 07:53:58;;;;;;;22.50;10.83;;;3.80;99.90;;;;;;5011957;28;20571;-84
2023/03/06 07:56:25;;;;;;;20.93;11.00;;;3.80;99.90;;;;;;5012679;28;20238;-83
2023/03/06 07:58:52;;;;;;;20.03;9.97;;;3.80;99.90;;;;;;5011492;28;20228;-83
2023/03/06 08:01:22;;;;;;;20.57;11.10;;;3.80;99.90;;;;;;5011799;28;20204;-84
2023/03/06 08:03:49;;;;;;;20.50;10.30;;;3.90;99.90;;;;;;5002906;28;20204;-82
2023/03/06 08:06:18;;;;;;;16.97;9.23;;;3.90;99.90;;;;;;4999679;28;20204;-83
2023/03/06 08:08:46;;;;;;;22.83;9.80;;;3.90;99.90;;;;;;5012686;28;20231;-82
2023/03/06 08:11:16;;;;;;;19.53;9.20;;;4.00;99.90;;;;;;5020827;28;20695;-82
2023/03/06 08:13:44;;;;;;;16.57;8.50;;;4.10;99.90;;;;;;5011986;28;20581;-82
2023/03/06 08:16:11;;;;;;;18.50;8.57;;;4.00;99.90;;;;;;5011934;28;20638;-82
2023/03/06 08:18:38;;;;;;;17.57;9.33;;;4.10;99.90;;;;;;5012086;28;20707;-83
2023/03/06 08:21:07;;;;;;;17.17;9.13;;;4.20;99.90;;;;;;5012093;28;20212;-82
2023/03/06 08:23:35;;;;;;;15.90;8.70;;;4.30;99.90;;;;;;5010963;28;20204;-82
2023/03/06 08:26:04;;;;;;;18.67;9.47;;;4.30;99.90;;;;;;5011823;28;20247;-82
2023/03/06 08:28:33;;;;;;;17.00;8.73;;;4.30;99.90;;;;;;5011388;28;20224;-82
2023/03/06 08:31:08;;;;;;;17.23;9.60;;;4.30;99.90;;;;;;5013307;28;20232;-82
2023/03/06 08:33:36;;;;;;;16.77;8.43;;;4.40;99.90;;;;;;5015256;28;20203;-82
2023/03/06 08:36:02;;;;;;;14.77;7.73;;;4.30;99.90;;;;;;5016567;28;20204;-82
2023/03/06 08:38:29;;;;;;;14.83;7.70;;;4.20;99.90;;;;;;5014724;28;20232;-82
2023/03/06 08:40:56;;;;;;;17.17;8.00;;;4.20;99.90;;;;;;5016084;28;20228;-81
2023/03/06 08:43:23;;;;;;;16.27;7.97;;;4.20;99.90;;;;;;5014141;28;20880;-83
2023/03/06 08:45:53;;;;;;;14.43;7.83;;;4.20;99.90;;;;;;5025906;28;20200;-82
2023/03/06 08:48:20;;;;;;;16.47;8.20;;;4.30;99.90;;;;;;5024116;28;20314;-83
2023/03/06 08:50:47;;;;;;;18.57;8.57;;;4.20;99.90;;;;;;5014545;28;20212;-82
2023/03/06 08:53:13;;;;;;;13.40;7.73;;;4.20;99.90;;;;;;5004135;28;20568;-85
2023/03/06 08:55:40;;;;;;;15.73;7.90;;;4.20;99.90;;;;;;5011217;28;20660;-81
2023/03/06 08:58:07;;;;;;;16.10;8.70;;;4.20;99.90;;;;;;5007451;28;20227;-82
2023/03/06 09:00:34;;;;;;;16.60;7.70;;;4.30;99.90;;;;;;5015519;28;20197;-83
2023/03/06 09:03:03;;;;;;;16.00;7.60;;;4.20;99.90;;;;;;4999513;28;20288;-82
2023/03/06 09:05:30;;;;;;;14.00;8.07;;;4.30;99.90;;;;;;5021780;28;20656;-82
2023/03/06 09:07:57;;;;;;;13.27;7.73;;;4.30;99.90;;;;;;5015405;28;20614;-84
2023/03/06 09:10:25;;;;;;;13.37;7.07;;;4.30;99.90;;;;;;5013664;28;20295;-82
2023/03/06 09:12:52;;;;;;;13.40;6.90;;;4.30;99.90;;;;;;5005426;28;20216;-82
2023/03/06 09:15:20;;;;;;;12.17;6.67;;;4.30;99.90;;;;;;5028712;28;20211;-81
2023/03/06 09:17:47;;;;;;;14.50;7.20;;;4.30;99.90;;;;;;5033936;28;20246;-85
2023/03/06 09:20:15;;;;;;;13.07;7.33;;;4.20;99.90;;;;;;5033968;28;20203;-82
2023/03/06 09:22:45;;;;;;;18.17;9.37;;;4.20;99.90;;;;;;5016441;28;20215;-82
2023/03/06 09:25:13;;;;;;;15.47;7.93;;;4.40;99.90;;;;;;5014697;28;20444;-83
2023/03/06 09:27:40;;;;;;;18.10;9.70;;;4.40;99.90;;;;;;5014815;28;20238;-83
2023/03/06 09:30:08;;;;;;;13.73;7.57;;;4.50;99.90;;;;;;5014094;28;20223;-83
2023/03/06 09:32:35;;;;;;;16.97;8.53;;;4.40;99.90;;;;;;5012824;28;20780;-82
2023/03/06 09:35:06;;;;;;;16.17;9.00;;;4.40;99.90;;;;;;5017855;28;20578;-84
2023/03/06 09:37:34;;;;;;;17.70;8.80;;;4.40;99.90;;;;;;5025530;28;20751;-84
2023/03/06 09:40:01;;;;;;;14.80;7.87;;;4.20;99.90;;;;;;5032868;28;20574;-82
2023/03/06 09:42:29;;;;;;;20.33;11.03;;;4.20;99.90;;;;;;5034212;28;20218;-82
2023/03/06 09:44:59;;;;;;;16.70;8.40;;;4.00;99.90;;;;;;5034937;28;20583;-83
2023/03/06 09:47:40;;;;;;;18.33;9.77;;;3.80;99.90;;;;;;5035464;28;20946;-83
2023/03/06 09:50:15;;;;;;;19.80;10.20;;;3.50;99.90;;;;;;5035042;28;20211;-84
2023/03/06 09:52:54;;;;;;;19.30;9.83;;;3.50;99.90;;;;;;5035080;28;20231;-82
2023/03/06 09:55:25;;;;;;;20.63;10.53;;;3.50;99.90;;;;;;5035631;28;20657;-83
2023/03/06 09:57:58;;;;;;;19.33;9.60;;;3.30;99.90;;;;;;5035460;28;20231;-82
2023/03/06 10:00:30;;;;;;;18.13;9.07;;;3.30;99.90;;;;;;5035489;28;20198;-82
2023/03/06 10:03:06;;;;;;;17.07;9.03;;;3.10;99.90;;;;;;5035050;28;20578;-83
2023/03/06 10:05:38;;;;;;;16.70;8.47;;;3.00;99.90;;;;;;5035570;28;20629;-82
2023/03/06 10:08:21;;;;;;;14.33;7.67;;;2.60;99.90;;;;;;5034767;28;20224;-83
2023/03/06 10:10:53;;;;;;;14.03;7.53;;;2.40;99.90;;;;;;5035173;28;20259;-83
2023/03/06 10:13:26;;;;;;;10.40;5.90;;;2.20;99.90;;;;;;5034957;28;20211;-83
2023/03/06 10:16:08;;;;;;;12.37;5.30;;;2.10;99.90;;;;;;5035862;28;20582;-83
2023/03/06 10:18:37;;;;;;;11.03;5.03;;;1.90;99.90;;;;;;5034604;28;20710;-83
2023/03/06 10:21:16;;;;;;;8.80;3.90;;;1.80;99.90;;;;;;5034563;28;20631;-82
2023/03/06 10:23:52;;;;;;;6.07;3.47;;;1.60;99.90;;;;;;5034511;28;20207;-82
2023/03/06 10:26:22;;;;;;;6.33;3.37;;;1.50;99.90;;;;;;5034531;28;20199;-82
2023/03/06 10:29:00;;;;;;;5.67;3.10;;;1.50;99.90;;;;;;5033848;28;20235;-82
2023/03/06 10:31:28;;;;;;;3.83;2.70;;;1.60;99.90;;;;;;5034155;28;20231;-83
2023/03/06 10:33:57;;;;;;;3.70;2.87;;;1.50;99.90;;;;;;5034394;28;20203;-83
2023/03/06 10:36:26;;;;;;;6.33;3.07;;;1.50;99.90;;;;;;5033845;28;20198;-82
2023/03/06 10:38:57;;;;;;;4.20;2.80;;;1.40;99.90;;;;;;5033719;28;20723;-83
2023/03/06 10:41:27;;;;;;;4.53;2.70;;;1.40;99.90;;;;;;5034495;28;20204;-82
2023/03/06 10:44:23;;;;;;;2.80;1.73;;;1.40;99.90;;;;;;5034308;28;20207;-83
2023/03/06 10:46:52;;;;;;;4.30;1.97;;;1.40;99.90;;;;;;5033621;28;20206;-83
2023/03/06 10:49:29;;;;;;;8.20;3.00;;;1.40;99.90;;;;;;5033729;28;20235;-82
2023/03/06 10:51:59;;;;;;;7.67;3.63;;;1.50;99.90;;;;;;5033659;28;20219;-82
2023/03/06 10:54:28;;;;;;;3.63;2.40;;;1.40;99.90;;;;;;5032999;28;20214;-82
2023/03/06 10:56:55;;;;;;;2.63;1.60;;;1.40;99.90;;;;;;5033608;28;20218;-82
2023/03/06 10:59:24;;;;;;;4.43;1.60;;;1.40;99.90;;;;;;5033603;28;20226;-82
2023/03/06 11:01:52;;;;;;;3.13;2.10;;;1.50;99.90;;;;;;5034600;28;20656;-83
2023/03/06 11:04:26;;;;;;;2.47;1.80;;;1.40;99.90;;;;;;5033688;28;20303;-82
2023/03/06 11:07:15;;;;;;;2.53;1.33;;;1.50;99.90;;;;;;5035221;28;20605;-82
2023/03/06 11:09:46;;;;;;;2.20;1.30;;;1.50;99.90;;;;;;5034223;28;20577;-82
2023/03/06 11:12:23;;;;;;;5.27;3.43;;;1.50;99.90;;;;;;5033533;28;20254;-84
2023/03/06 11:15:10;;;;;;;2.87;1.47;;;1.60;99.90;;;;;;5033327;28;20202;-82
2023/03/06 11:17:47;;;;;;;4.53;2.63;;;1.50;99.90;;;;;;5033505;28;20740;-82
2023/03/06 11:20:18;;;;;;;5.13;3.00;;;1.60;99.90;;;;;;5032997;28;20570;-82
2023/03/06 11:22:48;;;;;;;4.87;2.50;;;1.70;99.90;;;;;;5033215;28;20231;-84
2023/03/06 11:25:18;;;;;;;2.07;1.80;;;1.70;99.90;;;;;;5033287;28;20206;-82
2023/03/06 11:27:52;;;;;;;1.60;1.47;;;1.80;99.90;;;;;;5033187;28;20786;-82
2023/03/06 11:30:25;;;;;;;2.60;2.07;;;1.70;99.90;;;;;;5033170;28;20660;-82
2023/03/06 11:32:57;;;;;;;2.50;2.10;;;1.60;99.90;;;;;;5033153;28;20710;-83
2023/03/06 11:35:27;;;;;;;5.00;3.07;;;1.60;99.90;;;;;;5033089;28;20222;-82
2023/03/06 11:37:57;;;;;;;3.40;2.57;;;1.60;99.90;;;;;;5032818;28;20787;-82
2023/03/06 11:40:30;;;;;;;4.53;2.80;;;1.60;99.90;;;;;;5033296;28;20257;-82
2023/03/06 11:43:05;;;;;;;5.53;2.53;;;1.70;99.90;;;;;;5019482;28;20574;-82
2023/03/06 11:45:42;;;;;;;3.90;2.50;;;1.70;99.90;;;;;;5019470;28;20196;-83
2023/03/06 11:48:23;;;;;;;3.17;2.50;;;1.70;99.90;;;;;;5011558;28;20607;-84
2023/03/06 11:50:51;;;;;;;3.70;2.60;;;1.70;99.90;;;;;;5014507;28;20208;-83
2023/03/06 11:53:21;;;;;;;3.57;2.20;;;1.70;99.90;;;;;;5032028;28;20277;-82
2023/03/06 11:55:59;;;;;;;4.20;1.97;;;1.80;99.90;;;;;;5024870;28;20216;-83
2023/03/06 11:58:45;;;;;;;2.30;2.10;;;1.70;99.90;;;;;;5022522;28;20219;-83
2023/03/06 12:01:22;;;;;;;2.93;1.90;;;1.80;99.90;;;;;;5032451;28;20207;-83
2023/03/06 12:04:14;;;;;;;2.00;1.80;;;2.00;99.90;;;;;;5019144;28;20203;-82
2023/03/06 12:06:52;;;;;;;2.40;1.60;;;2.10;99.90;;;;;;4996162;28;20200;-83
2023/03/06 12:09:28;;;;;;;2.80;1.53;;;2.00;99.90;;;;;;4995106;28;20228;-83
2023/03/06 12:12:24;;;;;;;2.90;1.63;;;2.10;99.90;;;;;;5035041;28;20226;-83
2023/03/06 12:15:08;;;;;;;3.87;1.70;;;2.10;99.90;;;;;;5014880;28;20214;-83
2023/03/06 12:18:04;;;;;;;2.63;1.77;;;2.30;99.90;;;;;;5014902;28;20226;-83
2023/03/06 12:20:54;;;;;;;3.23;1.53;;;2.20;99.90;;;;;;4990647;28;20219;-83
2023/03/06 12:23:45;;;;;;;3.57;1.80;;;2.10;99.90;;;;;;5015225;28;20682;-84
2023/03/06 12:26:30;;;;;;;3.53;2.10;;;2.30;99.90;;;;;;5009225;28;20220;-83
2023/03/06 12:29:09;;;;;;;7.13;2.77;;;2.60;99.90;;;;;;5016218;28;20235;-82
2023/03/06 12:31:46;;;;;;;7.00;2.70;;;2.70;99.90;;;;;;5015720;28;20196;-83
2023/03/06 12:34:26;;;;;;;6.33;2.60;;;2.80;99.90;;;;;;5015824;28;20204;-82
2023/03/06 12:37:03;;;;;;;9.23;4.37;;;2.80;99.90;;;;;;5020242;28;20200;-82
2023/03/06 12:39:45;;;;;;;13.07;5.33;;;2.80;99.90;;;;;;5018423;28;20671;-83
2023/03/06 12:42:24;;;;;;;13.53;5.40;;;2.90;99.90;;;;;;5014379;28;20690;-82
2023/03/06 12:45:20;;;;;;;19.37;6.67;;;3.00;99.90;;;;;;4996635;28;20212;-83
2023/03/06 12:47:50;;;;;;;20.53;7.50;;;3.00;99.90;;;;;;4986109;28;20225;-82
2023/03/06 12:50:24;;;;;;;21.13;8.13;;;3.10;99.90;;;;;;5015229;28;20215;-83
2023/03/06 12:52:53;;;;;;;21.73;8.07;;;3.10;99.90;;;;;;5005911;28;20311;-82
2023/03/06 12:55:21;;;;;;;21.50;7.77;;;3.10;99.90;;;;;;5009897;28;20219;-82
2023/03/06 12:57:48;;;;;;;23.77;8.47;;;3.20;99.90;;;;;;5001207;28;20228;-82
2023/03/06 13:00:48;;;;;;;24.77;9.50;;;3.20;99.90;;;;;;5004323;28;20237;-86